sensor_id;sensor_type;location;lat;lon;timestamp;pressure;altitude;pressure_sealevel;temperature;humidity
12799;BME280;19250;42.646;26.980;2022-11-15T00:01:53;99724.25;;;12.01;100.00
12799;BME280;19250;42.646;26.980;2022-11-15T00:04:20;99716.47;;;12.08;100.00
12799;BME280;19250;42.646;26.980;2022-11-15T00:06:49;99717.34;;;11.71;100.00
12799;BME280;19250;42.646;26.980;2022-11-15T00:09:16;99718.75;;;11.66;100.00
12799;BME280;19250;42.646;26.980;2022-11-15T00:11:43;99709.09;;;11.65;100.00
12799;BME280;19250;42.646;26.980;2022-11-15T00:14:11;99711.53;;;11.85;100.00
12799;BME280;19250;42.646;26.980;2022-11-15T00:16:38;99705.78;;;11.80;100.00
12799;BME280;19250;42.646;26.980;2022-11-15T00:19:05;99708.53;;;11.61;100.00
12799;BME280;19250;42.646;26.980;2022-11-15T00:21:32;99708.06;;;11.75;100.00
12799;BME280;19250;42.646;26.980;2022-11-15T00:24:01;99710.16;;;11.81;100.00
12799;BME280;19250;42.646;26.980;2022-11-15T00:26:28;99707.19;;;11.84;100.00
12799;BME280;19250;42.646;26.980;2022-11-15T00:28:55;99705.53;;;12.01;100.00
12799;BME280;19250;42.646;26.980;2022-11-15T00:31:23;99698.84;;;11.87;100.00
12799;BME280;19250;42.646;26.980;2022-11-15T00:33:50;99697.28;;;12.12;100.00
12799;BME280;19250;42.646;26.980;2022-11-15T00:36:17;99694.00;;;12.00;100.00
12799;BME280;19250;42.646;26.980;2022-11-15T00:38:45;99689.16;;;11.86;100.00
12799;BME280;19250;42.646;26.980;2022-11-15T00:41:13;99683.28;;;11.56;100.00
12799;BME280;19250;42.646;26.980;2022-11-15T00:43:40;99686.66;;;11.48;100.00
12799;BME280;19250;42.646;26.980;2022-11-15T00:46:09;99688.53;;;11.38;100.00
12799;BME280;19250;42.646;26.980;2022-11-15T00:48:36;99684.25;;;11.55;100.00
12799;BME280;19250;42.646;26.980;2022-11-15T00:51:03;99684.31;;;11.35;100.00
12799;BME280;19250;42.646;26.980;2022-11-15T00:53:31;99682.75;;;11.42;100.00
12799;BME280;19250;42.646;26.980;2022-11-15T00:55:58;99684.50;;;11.34;100.00
12799;BME280;19250;42.646;26.980;2022-11-15T00:58:27;99694.06;;;11.27;100.00
12799;BME280;19250;42.646;26.980;2022-11-15T01:00:54;99687.25;;;11.42;100.00
12799;BME280;19250;42.646;26.980;2022-11-15T01:03:21;99685.81;;;11.47;100.00
12799;BME280;19250;42.646;26.980;2022-11-15T01:05:48;99682.34;;;11.74;100.00
12799;BME280;19250;42.646;26.980;2022-11-15T01:08:16;99683.44;;;11.81;100.00
12799;BME280;19250;42.646;26.980;2022-11-15T01:10:43;99676.94;;;11.84;100.00
12799;BME280;19250;42.646;26.980;2022-11-15T01:13:10;99679.63;;;11.47;100.00
12799;BME280;19250;42.646;26.980;2022-11-15T01:15:40;99682.47;;;11.09;100.00
12799;BME280;19250;42.646;26.980;2022-11-15T01:18:08;99672.88;;;10.31;100.00
12799;BME280;19250;42.646;26.980;2022-11-15T01:20:39;99633.44;;;9.96;100.00
12799;BME280;19250;42.646;26.980;2022-11-15T01:23:06;99681.44;;;10.63;100.00
12799;BME280;19250;42.646;26.980;2022-11-15T01:25:34;99674.28;;;10.45;100.00
12799;BME280;19250;42.646;26.980;2022-11-15T01:28:01;99676.97;;;11.10;100.00
12799;BME280;19250;42.646;26.980;2022-11-15T01:30:28;99678.75;;;11.19;100.00
12799;BME280;19250;42.646;26.980;2022-11-15T01:32:57;99678.09;;;10.42;100.00
12799;BME280;19250;42.646;26.980;2022-11-15T01:35:24;99675.13;;;10.35;100.00
12799;BME280;19250;42.646;26.980;2022-11-15T01:37:51;99676.31;;;10.89;100.00
12799;BME280;19250;42.646;26.980;2022-11-15T01:40:18;99650.78;;;10.86;100.00
12799;BME280;19250;42.646;26.980;2022-11-15T01:42:45;99674.16;;;11.12;100.00
12799;BME280;19250;42.646;26.980;2022-11-15T01:45:14;99675.47;;;11.35;100.00
12799;BME280;19250;42.646;26.980;2022-11-15T01:47:44;99670.59;;;11.58;100.00
12799;BME280;19250;42.646;26.980;2022-11-15T01:50:19;99663.56;;;11.57;100.00
12799;BME280;19250;42.646;26.980;2022-11-15T01:52:49;99664.72;;;11.81;100.00
12799;BME280;19250;42.646;26.980;2022-11-15T01:55:19;99665.28;;;12.02;100.00
12799;BME280;19250;42.646;26.980;2022-11-15T01:57:48;99665.75;;;11.98;100.00
12799;BME280;19250;42.646;26.980;2022-11-15T02:00:17;99655.56;;;11.84;100.00
12799;BME280;19250;42.646;26.980;2022-11-15T02:02:44;99635.66;;;11.69;100.00
12799;BME280;19250;42.646;26.980;2022-11-15T02:05:12;99669.41;;;11.06;100.00
12799;BME280;19250;42.646;26.980;2022-11-15T02:07:41;99658.72;;;11.15;100.00
12799;BME280;19250;42.646;26.980;2022-11-15T02:10:10;99664.53;;;11.28;100.00
12799;BME280;19250;42.646;26.980;2022-11-15T02:12:38;99656.69;;;11.54;100.00
12799;BME280;19250;42.646;26.980;2022-11-15T02:15:07;99655.72;;;11.55;100.00
12799;BME280;19250;42.646;26.980;2022-11-15T02:17:51;99652.03;;;11.83;100.00
12799;BME280;19250;42.646;26.980;2022-11-15T02:20:41;99649.31;;;11.66;100.00
12799;BME280;19250;42.646;26.980;2022-11-15T02:26:52;99653.97;;;11.73;100.00
12799;BME280;19250;42.646;26.980;2022-11-15T02:29:32;99653.00;;;11.37;100.00
12799;BME280;19250;42.646;26.980;2022-11-15T02:32:13;99652.16;;;11.37;100.00
12799;BME280;19250;42.646;26.980;2022-11-15T02:34:50;99647.38;;;11.04;100.00
12799;BME280;19250;42.646;26.980;2022-11-15T02:37:28;99647.75;;;11.09;100.00
12799;BME280;19250;42.646;26.980;2022-11-15T02:40:02;99646.59;;;11.21;100.00
12799;BME280;19250;42.646;26.980;2022-11-15T02:42:36;99648.81;;;10.88;100.00
12799;BME280;19250;42.646;26.980;2022-11-15T02:45:26;99651.06;;;11.30;100.00
12799;BME280;19250;42.646;26.980;2022-11-15T02:47:56;99564.94;;;11.01;100.00
12799;BME280;19250;42.646;26.980;2022-11-15T02:50:28;99650.56;;;11.71;100.00
12799;BME280;19250;42.646;26.980;2022-11-15T02:52:56;99649.47;;;11.74;100.00
12799;BME280;19250;42.646;26.980;2022-11-15T02:55:29;99647.59;;;11.74;100.00
12799;BME280;19250;42.646;26.980;2022-11-15T02:58:06;99642.66;;;11.79;100.00
12799;BME280;19250;42.646;26.980;2022-11-15T03:00:36;99646.88;;;11.82;100.00
12799;BME280;19250;42.646;26.980;2022-11-15T03:03:24;99647.28;;;12.05;100.00
12799;BME280;19250;42.646;26.980;2022-11-15T03:06:03;99640.78;;;12.07;100.00
12799;BME280;19250;42.646;26.980;2022-11-15T03:08:40;99642.00;;;12.13;100.00
12799;BME280;19250;42.646;26.980;2022-11-15T03:11:13;99641.31;;;12.28;100.00
12799;BME280;19250;42.646;26.980;2022-11-15T03:13:47;99645.28;;;12.07;100.00
12799;BME280;19250;42.646;26.980;2022-11-15T03:16:20;99648.09;;;12.05;100.00
12799;BME280;19250;42.646;26.980;2022-11-15T03:18:54;99643.22;;;12.18;100.00
12799;BME280;19250;42.646;26.980;2022-11-15T03:21:23;99643.28;;;11.91;100.00
12799;BME280;19250;42.646;26.980;2022-11-15T03:23:52;99644.22;;;11.18;100.00
12799;BME280;19250;42.646;26.980;2022-11-15T03:26:21;99645.34;;;11.15;100.00
12799;BME280;19250;42.646;26.980;2022-11-15T03:28:53;99642.66;;;11.25;100.00
12799;BME280;19250;42.646;26.980;2022-11-15T03:31:23;99640.84;;;11.53;100.00
12799;BME280;19250;42.646;26.980;2022-11-15T03:34:14;99640.22;;;11.31;100.00
12799;BME280;19250;42.646;26.980;2022-11-15T03:36:44;99640.84;;;11.53;100.00
12799;BME280;19250;42.646;26.980;2022-11-15T03:39:13;99632.66;;;11.27;100.00
12799;BME280;19250;42.646;26.980;2022-11-15T03:41:46;99629.91;;;11.19;100.00
12799;BME280;19250;42.646;26.980;2022-11-15T03:44:21;99625.91;;;11.23;100.00
12799;BME280;19250;42.646;26.980;2022-11-15T03:46:57;99635.63;;;11.24;100.00
12799;BME280;19250;42.646;26.980;2022-11-15T03:49:32;99626.69;;;11.15;100.00
12799;BME280;19250;42.646;26.980;2022-11-15T03:52:02;99622.56;;;11.21;100.00
12799;BME280;19250;42.646;26.980;2022-11-15T03:54:30;99625.44;;;11.37;100.00
12799;BME280;19250;42.646;26.980;2022-11-15T03:56:58;99629.09;;;11.36;100.00
12799;BME280;19250;42.646;26.980;2022-11-15T03:59:25;99626.16;;;11.02;100.00
12799;BME280;19250;42.646;26.980;2022-11-15T04:05:15;99620.88;;;10.83;100.00
12799;BME280;19250;42.646;26.980;2022-11-15T04:07:43;99614.09;;;10.98;100.00
12799;BME280;19250;42.646;26.980;2022-11-15T04:10:11;99606.38;;;10.95;100.00
12799;BME280;19250;42.646;26.980;2022-11-15T04:12:40;99610.34;;;10.91;100.00
12799;BME280;19250;42.646;26.980;2022-11-15T04:15:11;99605.41;;;10.96;100.00
12799;BME280;19250;42.646;26.980;2022-11-15T04:17:39;99615.44;;;10.75;100.00
12799;BME280;19250;42.646;26.980;2022-11-15T04:20:09;99608.84;;;10.69;100.00
12799;BME280;19250;42.646;26.980;2022-11-15T04:22:57;99606.75;;;10.63;100.00
12799;BME280;19250;42.646;26.980;2022-11-15T04:25:43;99611.91;;;10.74;100.00
12799;BME280;19250;42.646;26.980;2022-11-15T04:28:11;99608.09;;;10.86;100.00
12799;BME280;19250;42.646;26.980;2022-11-15T04:30:39;99605.16;;;10.80;100.00
12799;BME280;19250;42.646;26.980;2022-11-15T04:33:06;99608.56;;;10.72;100.00
12799;BME280;19250;42.646;26.980;2022-11-15T04:35:33;99597.81;;;10.45;100.00
12799;BME280;19250;42.646;26.980;2022-11-15T04:38:03;99596.13;;;10.44;100.00
12799;BME280;19250;42.646;26.980;2022-11-15T04:40:31;99607.84;;;10.70;100.00
12799;BME280;19250;42.646;26.980;2022-11-15T04:42:59;99604.31;;;10.79;100.00
12799;BME280;19250;42.646;26.980;2022-11-15T04:45:26;99603.56;;;10.50;100.00
12799;BME280;19250;42.646;26.980;2022-11-15T04:47:53;99600.88;;;10.60;100.00
12799;BME280;19250;42.646;26.980;2022-11-15T04:50:20;99597.25;;;10.03;100.00
12799;BME280;19250;42.646;26.980;2022-11-15T04:52:51;99603.34;;;10.15;100.00
12799;BME280;19250;42.646;26.980;2022-11-15T04:55:20;99598.22;;;10.50;100.00
12799;BME280;19250;42.646;26.980;2022-11-15T04:57:47;99597.53;;;10.58;100.00
12799;BME280;19250;42.646;26.980;2022-11-15T05:00:16;99594.44;;;10.53;100.00
12799;BME280;19250;42.646;26.980;2022-11-15T05:02:43;99602.41;;;10.62;100.00
12799;BME280;19250;42.646;26.980;2022-11-15T05:05:33;99592.50;;;10.91;100.00
12799;BME280;19250;42.646;26.980;2022-11-15T05:08:01;99601.19;;;10.93;100.00
12799;BME280;19250;42.646;26.980;2022-11-15T05:10:29;99596.28;;;10.89;100.00
12799;BME280;19250;42.646;26.980;2022-11-15T05:12:56;99593.41;;;11.10;100.00
12799;BME280;19250;42.646;26.980;2022-11-15T05:15:24;99602.53;;;11.07;100.00
12799;BME280;19250;42.646;26.980;2022-11-15T05:17:53;99601.50;;;10.90;100.00
12799;BME280;19250;42.646;26.980;2022-11-15T05:20:23;99583.84;;;10.70;100.00
12799;BME280;19250;42.646;26.980;2022-11-15T05:22:51;99594.38;;;10.72;100.00
12799;BME280;19250;42.646;26.980;2022-11-15T05:25:19;99599.81;;;10.80;100.00
12799;BME280;19250;42.646;26.980;2022-11-15T05:27:48;99604.25;;;10.99;100.00
12799;BME280;19250;42.646;26.980;2022-11-15T05:30:15;99606.50;;;11.03;100.00
12799;BME280;19250;42.646;26.980;2022-11-15T05:32:43;99604.75;;;10.75;100.00
12799;BME280;19250;42.646;26.980;2022-11-15T05:35:13;99609.88;;;10.96;100.00
12799;BME280;19250;42.646;26.980;2022-11-15T05:37:42;99610.09;;;11.12;100.00
12799;BME280;19250;42.646;26.980;2022-11-15T05:40:09;99605.31;;;11.42;100.00
12799;BME280;19250;42.646;26.980;2022-11-15T05:42:37;99611.88;;;11.48;100.00
12799;BME280;19250;42.646;26.980;2022-11-15T05:45:08;99616.63;;;11.54;100.00
12799;BME280;19250;42.646;26.980;2022-11-15T05:47:36;99621.28;;;11.52;100.00
12799;BME280;19250;42.646;26.980;2022-11-15T05:50:05;99620.28;;;11.80;100.00
12799;BME280;19250;42.646;26.980;2022-11-15T05:52:35;99605.94;;;11.99;100.00
12799;BME280;19250;42.646;26.980;2022-11-15T05:55:06;99617.06;;;12.30;100.00
12799;BME280;19250;42.646;26.980;2022-11-15T05:57:34;99625.81;;;12.32;100.00
12799;BME280;19250;42.646;26.980;2022-11-15T06:00:03;99627.88;;;12.38;100.00
12799;BME280;19250;42.646;26.980;2022-11-15T06:02:32;99631.75;;;12.43;100.00
12799;BME280;19250;42.646;26.980;2022-11-15T06:04:59;99634.06;;;12.64;100.00
12799;BME280;19250;42.646;26.980;2022-11-15T06:07:26;99636.66;;;12.74;100.00
12799;BME280;19250;42.646;26.980;2022-11-15T06:09:55;99624.84;;;12.84;100.00
12799;BME280;19250;42.646;26.980;2022-11-15T06:12:22;99634.03;;;12.82;100.00
12799;BME280;19250;42.646;26.980;2022-11-15T06:14:50;99638.19;;;12.76;100.00
12799;BME280;19250;42.646;26.980;2022-11-15T06:17:17;99634.41;;;12.87;100.00
12799;BME280;19250;42.646;26.980;2022-11-15T06:19:46;99635.31;;;12.52;100.00
12799;BME280;19250;42.646;26.980;2022-11-15T06:22:13;99634.34;;;12.53;100.00
12799;BME280;19250;42.646;26.980;2022-11-15T06:24:40;99642.47;;;12.95;100.00
12799;BME280;19250;42.646;26.980;2022-11-15T06:27:10;99638.13;;;12.68;100.00
12799;BME280;19250;42.646;26.980;2022-11-15T06:29:37;99635.28;;;12.70;100.00
12799;BME280;19250;42.646;26.980;2022-11-15T06:32:05;99641.72;;;13.02;100.00
12799;BME280;19250;42.646;26.980;2022-11-15T06:34:32;99646.69;;;12.97;100.00
12799;BME280;19250;42.646;26.980;2022-11-15T06:37:02;99634.56;;;12.85;100.00
12799;BME280;19250;42.646;26.980;2022-11-15T06:39:30;99645.00;;;12.96;100.00
12799;BME280;19250;42.646;26.980;2022-11-15T06:41:57;99640.56;;;12.87;100.00
12799;BME280;19250;42.646;26.980;2022-11-15T06:44:24;99643.69;;;13.00;100.00
12799;BME280;19250;42.646;26.980;2022-11-15T06:46:51;99632.06;;;13.09;100.00
12799;BME280;19250;42.646;26.980;2022-11-15T06:49:19;99646.69;;;12.97;100.00
12799;BME280;19250;42.646;26.980;2022-11-15T06:51:46;99643.69;;;12.75;100.00
12799;BME280;19250;42.646;26.980;2022-11-15T06:54:15;99642.47;;;12.69;100.00
12799;BME280;19250;42.646;26.980;2022-11-15T06:56:42;99641.63;;;12.25;100.00
12799;BME280;19250;42.646;26.980;2022-11-15T06:59:09;99641.47;;;11.91;100.00
12799;BME280;19250;42.646;26.980;2022-11-15T07:01:37;99623.16;;;11.15;100.00
12799;BME280;19250;42.646;26.980;2022-11-15T07:04:04;99633.78;;;10.97;100.00
12799;BME280;19250;42.646;26.980;2022-11-15T07:06:31;99633.94;;;11.23;100.00
12799;BME280;19250;42.646;26.980;2022-11-15T07:08:59;99630.47;;;11.13;100.00
12799;BME280;19250;42.646;26.980;2022-11-15T07:11:27;99641.13;;;10.85;100.00
12799;BME280;19250;42.646;26.980;2022-11-15T07:13:54;99636.69;;;10.57;100.00
12799;BME280;19250;42.646;26.980;2022-11-15T07:16:22;99627.94;;;10.65;100.00
12799;BME280;19250;42.646;26.980;2022-11-15T07:18:49;99634.41;;;10.72;100.00
12799;BME280;19250;42.646;26.980;2022-11-15T07:21:16;99631.31;;;11.68;100.00
12799;BME280;19250;42.646;26.980;2022-11-15T07:23:43;99633.13;;;12.47;100.00
12799;BME280;19250;42.646;26.980;2022-11-15T07:26:11;99637.09;;;12.69;100.00
12799;BME280;19250;42.646;26.980;2022-11-15T07:28:39;99637.84;;;12.53;100.00
12799;BME280;19250;42.646;26.980;2022-11-15T07:31:08;99634.69;;;12.58;100.00
12799;BME280;19250;42.646;26.980;2022-11-15T07:33:36;99638.28;;;12.92;100.00
12799;BME280;19250;42.646;26.980;2022-11-15T07:36:05;99636.31;;;13.20;100.00
12799;BME280;19250;42.646;26.980;2022-11-15T07:38:33;99635.59;;;13.52;100.00
12799;BME280;19250;42.646;26.980;2022-11-15T07:41:03;99638.84;;;13.63;100.00
12799;BME280;19250;42.646;26.980;2022-11-15T07:43:30;99634.81;;;13.26;100.00
12799;BME280;19250;42.646;26.980;2022-11-15T07:46:04;99639.13;;;13.19;100.00
12799;BME280;19250;42.646;26.980;2022-11-15T07:48:33;99568.41;;;13.03;100.00
12799;BME280;19250;42.646;26.980;2022-11-15T07:51:00;99569.13;;;12.80;100.00
12799;BME280;19250;42.646;26.980;2022-11-15T07:53:27;99637.06;;;13.38;100.00
12799;BME280;19250;42.646;26.980;2022-11-15T07:55:55;99635.91;;;13.49;100.00
12799;BME280;19250;42.646;26.980;2022-11-15T07:58:22;99628.94;;;13.64;99.15
12799;BME280;19250;42.646;26.980;2022-11-15T08:00:49;99630.09;;;13.53;99.26
12799;BME280;19250;42.646;26.980;2022-11-15T08:03:18;99631.72;;;13.13;100.00
12799;BME280;19250;42.646;26.980;2022-11-15T08:05:50;99634.50;;;13.29;100.00
12799;BME280;19250;42.646;26.980;2022-11-15T08:08:18;99624.94;;;13.68;99.30
12799;BME280;19250;42.646;26.980;2022-11-15T08:10:45;99629.84;;;13.81;98.55
12799;BME280;19250;42.646;26.980;2022-11-15T08:13:13;99623.69;;;14.04;96.84
12799;BME280;19250;42.646;26.980;2022-11-15T08:15:40;99627.16;;;13.89;97.42
12799;BME280;19250;42.646;26.980;2022-11-15T08:18:10;99631.69;;;13.88;97.15
12799;BME280;19250;42.646;26.980;2022-11-15T08:20:40;99629.38;;;14.01;95.81
12799;BME280;19250;42.646;26.980;2022-11-15T08:23:08;99630.03;;;13.95;95.82
12799;BME280;19250;42.646;26.980;2022-11-15T08:25:37;99626.34;;;13.96;95.33
12799;BME280;19250;42.646;26.980;2022-11-15T08:28:06;99627.44;;;14.60;91.21
12799;BME280;19250;42.646;26.980;2022-11-15T08:30:36;99633.13;;;14.73;90.23
12799;BME280;19250;42.646;26.980;2022-11-15T08:33:04;99596.00;;;14.04;92.86
12799;BME280;19250;42.646;26.980;2022-11-15T08:35:31;99622.34;;;14.00;94.86
12799;BME280;19250;42.646;26.980;2022-11-15T08:38:00;99621.06;;;14.61;91.33
12799;BME280;19250;42.646;26.980;2022-11-15T08:40:27;99623.72;;;14.77;89.84
12799;BME280;19250;42.646;26.980;2022-11-15T08:42:55;99619.69;;;14.65;90.56
12799;BME280;19250;42.646;26.980;2022-11-15T08:45:22;99615.41;;;15.11;88.79
12799;BME280;19250;42.646;26.980;2022-11-15T08:47:49;99612.28;;;15.38;83.12
12799;BME280;19250;42.646;26.980;2022-11-15T08:50:16;99608.06;;;15.52;82.66
12799;BME280;19250;42.646;26.980;2022-11-15T08:52:44;99602.75;;;14.32;87.07
12799;BME280;19250;42.646;26.980;2022-11-15T08:55:12;99609.34;;;15.17;82.98
12799;BME280;19250;42.646;26.980;2022-11-15T08:57:40;99602.66;;;15.60;80.81
12799;BME280;19250;42.646;26.980;2022-11-15T09:00:08;99594.38;;;15.69;78.96
12799;BME280;19250;42.646;26.980;2022-11-15T09:02:37;99592.66;;;15.38;81.92
12799;BME280;19250;42.646;26.980;2022-11-15T09:05:06;99587.94;;;15.40;81.85
12799;BME280;19250;42.646;26.980;2022-11-15T09:07:33;99586.91;;;15.02;82.49
12799;BME280;19250;42.646;26.980;2022-11-15T09:10:01;99584.59;;;15.38;82.69
12799;BME280;19250;42.646;26.980;2022-11-15T09:12:30;99577.53;;;15.37;82.60
12799;BME280;19250;42.646;26.980;2022-11-15T09:14:57;99570.31;;;15.37;82.96
12799;BME280;19250;42.646;26.980;2022-11-15T09:17:24;99575.16;;;15.03;86.03
12799;BME280;19250;42.646;26.980;2022-11-15T09:19:52;99565.00;;;15.60;79.62
12799;BME280;19250;42.646;26.980;2022-11-15T09:22:19;99563.78;;;16.39;75.43
12799;BME280;19250;42.646;26.980;2022-11-15T09:24:46;99547.50;;;16.17;75.88
12799;BME280;19250;42.646;26.980;2022-11-15T09:27:13;99556.16;;;16.94;73.17
12799;BME280;19250;42.646;26.980;2022-11-15T09:29:42;99552.75;;;16.11;77.58
12799;BME280;19250;42.646;26.980;2022-11-15T09:32:09;99555.13;;;15.83;77.74
12799;BME280;19250;42.646;26.980;2022-11-15T09:34:37;99554.97;;;16.07;76.83
12799;BME280;19250;42.646;26.980;2022-11-15T09:37:04;99543.91;;;16.40;74.47
12799;BME280;19250;42.646;26.980;2022-11-15T09:39:31;99553.66;;;16.78;71.51
12799;BME280;19250;42.646;26.980;2022-11-15T09:42:09;99543.75;;;16.41;73.90
12799;BME280;19250;42.646;26.980;2022-11-15T09:44:52;99537.19;;;16.73;71.36
12799;BME280;19250;42.646;26.980;2022-11-15T09:47:49;99532.00;;;15.74;75.59
12799;BME280;19250;42.646;26.980;2022-11-15T09:50:35;99529.09;;;15.84;76.99
12799;BME280;19250;42.646;26.980;2022-11-15T09:53:04;99523.91;;;15.97;75.34
12799;BME280;19250;42.646;26.980;2022-11-15T09:55:36;99523.78;;;16.36;75.23
12799;BME280;19250;42.646;26.980;2022-11-15T09:58:18;99523.56;;;16.22;73.95
12799;BME280;19250;42.646;26.980;2022-11-15T10:00:51;99516.09;;;15.87;76.76
12799;BME280;19250;42.646;26.980;2022-11-15T10:03:26;99524.97;;;14.95;83.57
12799;BME280;19250;42.646;26.980;2022-11-15T10:05:59;99512.81;;;15.54;82.00
12799;BME280;19250;42.646;26.980;2022-11-15T10:08:53;99513.13;;;16.05;78.32
12799;BME280;19250;42.646;26.980;2022-11-15T10:11:25;99513.25;;;15.89;78.45
12799;BME280;19250;42.646;26.980;2022-11-15T10:13:56;99514.28;;;15.57;80.40
12799;BME280;19250;42.646;26.980;2022-11-15T10:17:01;99505.75;;;15.22;85.36
12799;BME280;19250;42.646;26.980;2022-11-15T10:19:35;99503.38;;;15.58;82.87
12799;BME280;19250;42.646;26.980;2022-11-15T10:22:21;99492.19;;;15.69;80.66
12799;BME280;19250;42.646;26.980;2022-11-15T10:24:57;99494.94;;;15.84;79.48
12799;BME280;19250;42.646;26.980;2022-11-15T10:27:26;99491.13;;;16.01;77.22
12799;BME280;19250;42.646;26.980;2022-11-15T10:29:53;99485.50;;;15.88;79.57
12799;BME280;19250;42.646;26.980;2022-11-15T10:32:22;99457.41;;;14.37;88.38
12799;BME280;19250;42.646;26.980;2022-11-15T10:34:49;99469.19;;;15.13;84.32
12799;BME280;19250;42.646;26.980;2022-11-15T10:37:28;99466.75;;;15.26;83.71
12799;BME280;19250;42.646;26.980;2022-11-15T10:40:12;99469.53;;;15.10;84.43
12799;BME280;19250;42.646;26.980;2022-11-15T10:42:41;99455.09;;;15.11;83.90
12799;BME280;19250;42.646;26.980;2022-11-15T10:45:23;99471.63;;;15.54;82.49
12799;BME280;19250;42.646;26.980;2022-11-15T10:47:52;99449.91;;;15.86;77.52
12799;BME280;19250;42.646;26.980;2022-11-15T10:50:29;99460.66;;;15.86;76.33
12799;BME280;19250;42.646;26.980;2022-11-15T10:52:56;99456.28;;;16.22;75.48
12799;BME280;19250;42.646;26.980;2022-11-15T10:55:27;99450.25;;;16.35;75.27
12799;BME280;19250;42.646;26.980;2022-11-15T10:58:04;99415.06;;;15.70;77.92
12799;BME280;19250;42.646;26.980;2022-11-15T11:00:35;99437.56;;;15.92;79.14
12799;BME280;19250;42.646;26.980;2022-11-15T11:03:08;99448.34;;;16.06;78.43
12799;BME280;19250;42.646;26.980;2022-11-15T11:05:47;99438.00;;;16.32;75.67
12799;BME280;19250;42.646;26.980;2022-11-15T11:08:23;99444.69;;;16.95;73.46
12799;BME280;19250;42.646;26.980;2022-11-15T11:10:55;99434.56;;;17.33;67.86
12799;BME280;19250;42.646;26.980;2022-11-15T11:13:24;99432.47;;;17.14;67.43
12799;BME280;19250;42.646;26.980;2022-11-15T11:15:55;99419.44;;;16.67;72.80
12799;BME280;19250;42.646;26.980;2022-11-15T11:18:31;99420.94;;;16.84;71.45
12799;BME280;19250;42.646;26.980;2022-11-15T11:21:04;99422.16;;;17.17;68.64
12799;BME280;19250;42.646;26.980;2022-11-15T11:23:51;99388.06;;;16.74;68.73
12799;BME280;19250;42.646;26.980;2022-11-15T11:26:40;99413.00;;;16.97;68.75
12799;BME280;19250;42.646;26.980;2022-11-15T11:29:23;99405.56;;;16.63;71.65
12799;BME280;19250;42.646;26.980;2022-11-15T11:31:58;99402.88;;;17.56;67.40
12799;BME280;19250;42.646;26.980;2022-11-15T11:34:41;99395.75;;;18.60;60.47
12799;BME280;19250;42.646;26.980;2022-11-15T11:37:19;99387.78;;;19.73;49.29
12799;BME280;19250;42.646;26.980;2022-11-15T11:39:56;99387.47;;;20.59;46.21
12799;BME280;19250;42.646;26.980;2022-11-15T11:42:35;99384.63;;;22.17;40.92
12799;BME280;19250;42.646;26.980;2022-11-15T11:45:15;99379.91;;;22.31;37.65
12799;BME280;19250;42.646;26.980;2022-11-15T11:47:47;99384.88;;;21.91;39.01
12799;BME280;19250;42.646;26.980;2022-11-15T11:50:20;99368.44;;;22.29;38.09
12799;BME280;19250;42.646;26.980;2022-11-15T11:52:57;99365.41;;;23.40;34.82
12799;BME280;19250;42.646;26.980;2022-11-15T11:55:29;99363.41;;;24.23;33.55
12799;BME280;19250;42.646;26.980;2022-11-15T11:58:04;99355.06;;;25.61;31.44
12799;BME280;19250;42.646;26.980;2022-11-15T12:00:37;99345.75;;;26.88;29.76
12799;BME280;19250;42.646;26.980;2022-11-15T12:03:14;99342.81;;;28.54;27.49
12799;BME280;19250;42.646;26.980;2022-11-15T12:05:48;99340.00;;;28.91;26.45
12799;BME280;19250;42.646;26.980;2022-11-15T12:08:36;99344.19;;;25.21;30.54
12799;BME280;19250;42.646;26.980;2022-11-15T12:11:12;99333.53;;;25.64;30.08
12799;BME280;19250;42.646;26.980;2022-11-15T12:13:40;99336.19;;;25.31;30.83
12799;BME280;19250;42.646;26.980;2022-11-15T12:16:13;99335.28;;;23.64;32.84
12799;BME280;19250;42.646;26.980;2022-11-15T12:18:46;99334.06;;;21.74;36.55
12799;BME280;19250;42.646;26.980;2022-11-15T12:21:21;99300.06;;;20.26;41.11
12799;BME280;19250;42.646;26.980;2022-11-15T12:23:54;99316.81;;;19.58;44.11
12799;BME280;19250;42.646;26.980;2022-11-15T12:26:28;99305.88;;;17.97;54.63
12799;BME280;19250;42.646;26.980;2022-11-15T12:29:00;99299.03;;;18.89;51.81
12799;BME280;19250;42.646;26.980;2022-11-15T12:31:36;99295.59;;;19.41;49.29
12799;BME280;19250;42.646;26.980;2022-11-15T12:34:15;99304.50;;;21.59;40.68
12799;BME280;19250;42.646;26.980;2022-11-15T12:36:44;99293.34;;;22.16;37.98
12799;BME280;19250;42.646;26.980;2022-11-15T12:39:12;99293.91;;;19.67;45.23
12799;BME280;19250;42.646;26.980;2022-11-15T12:41:41;99298.44;;;17.22;60.28
12799;BME280;19250;42.646;26.980;2022-11-15T12:44:11;99290.22;;;18.61;57.35
12799;BME280;19250;42.646;26.980;2022-11-15T12:47:04;99295.19;;;19.44;49.71
12799;BME280;19250;42.646;26.980;2022-11-15T12:49:49;99282.88;;;19.42;49.07
12799;BME280;19250;42.646;26.980;2022-11-15T12:52:19;99278.44;;;18.82;54.61
12799;BME280;19250;42.646;26.980;2022-11-15T12:54:57;99279.28;;;20.58;44.46
12799;BME280;19250;42.646;26.980;2022-11-15T12:57:35;99283.25;;;16.94;64.67
12799;BME280;19250;42.646;26.980;2022-11-15T13:03:19;99274.16;;;19.60;48.22
12799;BME280;19250;42.646;26.980;2022-11-15T13:06:00;99272.31;;;18.06;58.15
12799;BME280;19250;42.646;26.980;2022-11-15T13:08:50;99266.84;;;19.01;51.16
12799;BME280;19250;42.646;26.980;2022-11-15T13:11:45;99270.22;;;16.97;65.53
12799;BME280;19250;42.646;26.980;2022-11-15T13:14:38;99271.75;;;16.85;68.81